Terminal Aerodrome Forecast
Issued by NWS Charleston, WV

Current Version | Previous Version | Graphics & Text | Print | Product List | Glossary On
Versions: 1 2 3 4 5 6 7 8 9 10 11 12 13 14 15 16 17 18 19 20 21 22
780
FTUS41 KRLX 111120
TAFHTS
TAF
KHTS 111120Z 1112/1212 27004KT P6SM BKN035
     FM111600 29005KT P6SM SCT045
     FM120100 00000KT P6SM BKN250
     FM120600 00000KT P6SM BKN110=

USA.gov is the U.S. government's official web portal to all federal, state and local government web resources and services.